sensor_id;sensor_type;location;lat;lon;timestamp;pressure;altitude;pressure_sealevel;temperature;humidity
60101;BME280;45978;53.646;55.930;2023-02-13T00:00:17;100373.72;;;-10.34;67.88
60101;BME280;45978;53.646;55.930;2023-02-13T00:01:20;100381.59;;;-10.17;68.47
60101;BME280;45978;53.646;55.930;2023-02-13T00:02:22;100388.50;;;-10.14;68.76
60101;BME280;45978;53.646;55.930;2023-02-13T00:03:24;100380.22;;;-10.25;67.99
60101;BME280;45978;53.646;55.930;2023-02-13T00:04:26;100379.22;;;-10.27;68.17
60101;BME280;45978;53.646;55.930;2023-02-13T00:05:27;100364.91;;;-10.26;68.00
60101;BME280;45978;53.646;55.930;2023-02-13T00:06:29;100375.81;;;-10.27;67.56
60101;BME280;45978;53.646;55.930;2023-02-13T00:07:30;100380.88;;;-10.14;67.60
60101;BME280;45978;53.646;55.930;2023-02-13T00:08:32;100392.28;;;-10.07;67.52
60101;BME280;45978;53.646;55.930;2023-02-13T00:09:34;100372.19;;;-10.18;67.76
60101;BME280;45978;53.646;55.930;2023-02-13T00:10:37;100380.41;;;-10.08;67.98
60101;BME280;45978;53.646;55.930;2023-02-13T00:11:39;100393.19;;;-10.07;67.86
60101;BME280;45978;53.646;55.930;2023-02-13T00:12:42;100385.00;;;-10.03;67.79
60101;BME280;45978;53.646;55.930;2023-02-13T00:13:43;100368.28;;;-10.12;67.17
60101;BME280;45978;53.646;55.930;2023-02-13T00:14:46;100372.50;;;-10.13;67.76
60101;BME280;45978;53.646;55.930;2023-02-13T00:15:58;100386.72;;;-10.02;66.92
60101;BME280;45978;53.646;55.930;2023-02-13T00:16:59;100386.56;;;-10.05;66.58
60101;BME280;45978;53.646;55.930;2023-02-13T00:18:01;100385.28;;;-10.11;66.77
60101;BME280;45978;53.646;55.930;2023-02-13T00:19:03;100404.41;;;-10.03;67.21
60101;BME280;45978;53.646;55.930;2023-02-13T00:20:05;100396.97;;;-10.00;67.21
60101;BME280;45978;53.646;55.930;2023-02-13T00:21:11;100405.78;;;-9.95;67.06
60101;BME280;45978;53.646;55.930;2023-02-13T00:22:13;100399.25;;;-10.05;66.82
60101;BME280;45978;53.646;55.930;2023-02-13T00:23:16;100397.97;;;-9.98;66.87
60101;BME280;45978;53.646;55.930;2023-02-13T00:24:19;100398.34;;;-9.92;67.08
60101;BME280;45978;53.646;55.930;2023-02-13T00:25:20;100377.25;;;-10.04;66.86
60101;BME280;45978;53.646;55.930;2023-02-13T00:26:21;100380.00;;;-10.01;67.29
60101;BME280;45978;53.646;55.930;2023-02-13T00:27:23;100356.25;;;-10.15;66.98
60101;BME280;45978;53.646;55.930;2023-02-13T00:28:25;100372.56;;;-10.11;67.41
60101;BME280;45978;53.646;55.930;2023-02-13T00:29:26;100373.75;;;-10.06;67.26
60101;BME280;45978;53.646;55.930;2023-02-13T00:30:28;100354.91;;;-10.23;66.69
60101;BME280;45978;53.646;55.930;2023-02-13T00:31:29;100382.25;;;-10.19;66.52
60101;BME280;45978;53.646;55.930;2023-02-13T00:32:30;100364.09;;;-10.25;66.79
60101;BME280;45978;53.646;55.930;2023-02-13T00:33:32;100365.28;;;-10.20;67.48
60101;BME280;45978;53.646;55.930;2023-02-13T00:34:33;100369.56;;;-10.19;66.96
60101;BME280;45978;53.646;55.930;2023-02-13T00:35:37;100345.47;;;-10.26;67.08
60101;BME280;45978;53.646;55.930;2023-02-13T00:36:39;100375.81;;;-10.14;67.17
60101;BME280;45978;53.646;55.930;2023-02-13T00:37:40;100345.88;;;-10.33;66.63
60101;BME280;45978;53.646;55.930;2023-02-13T00:38:42;100380.28;;;-10.10;67.40
60101;BME280;45978;53.646;55.930;2023-02-13T00:39:43;100369.00;;;-10.28;67.03
60101;BME280;45978;53.646;55.930;2023-02-13T00:40:44;100379.44;;;-10.10;67.25
60101;BME280;45978;53.646;55.930;2023-02-13T00:41:46;100375.72;;;-10.16;66.78
60101;BME280;45978;53.646;55.930;2023-02-13T00:42:47;100397.91;;;-10.13;67.37
60101;BME280;45978;53.646;55.930;2023-02-13T00:43:49;100378.94;;;-10.18;67.37
60101;BME280;45978;53.646;55.930;2023-02-13T00:44:51;100371.13;;;-10.21;67.48
60101;BME280;45978;53.646;55.930;2023-02-13T00:45:53;100379.72;;;-10.19;67.44
60101;BME280;45978;53.646;55.930;2023-02-13T00:46:54;100354.28;;;-10.34;67.32
60101;BME280;45978;53.646;55.930;2023-02-13T00:47:57;100351.16;;;-10.30;67.25
60101;BME280;45978;53.646;55.930;2023-02-13T00:48:59;100344.00;;;-10.22;67.63
60101;BME280;45978;53.646;55.930;2023-02-13T00:50:00;100367.22;;;-10.16;67.59
60101;BME280;45978;53.646;55.930;2023-02-13T00:51:05;100377.38;;;-10.16;68.40
60101;BME280;45978;53.646;55.930;2023-02-13T00:52:07;100364.31;;;-10.22;67.74
60101;BME280;45978;53.646;55.930;2023-02-13T00:53:08;100393.69;;;-10.12;68.38
60101;BME280;45978;53.646;55.930;2023-02-13T00:54:09;100375.16;;;-10.25;68.31
60101;BME280;45978;53.646;55.930;2023-02-13T00:55:12;100372.41;;;-10.28;68.80
60101;BME280;45978;53.646;55.930;2023-02-13T00:56:14;100384.03;;;-10.18;68.50
60101;BME280;45978;53.646;55.930;2023-02-13T00:57:18;100372.78;;;-10.22;68.34
60101;BME280;45978;53.646;55.930;2023-02-13T00:58:20;100381.38;;;-10.20;68.35
60101;BME280;45978;53.646;55.930;2023-02-13T00:59:24;100374.56;;;-10.21;68.28
60101;BME280;45978;53.646;55.930;2023-02-13T01:00:26;100378.25;;;-10.16;68.29
60101;BME280;45978;53.646;55.930;2023-02-13T01:01:27;100377.97;;;-10.20;68.47
60101;BME280;45978;53.646;55.930;2023-02-13T01:02:29;100381.28;;;-10.21;68.93
60101;BME280;45978;53.646;55.930;2023-02-13T01:03:30;100364.34;;;-10.36;68.64
60101;BME280;45978;53.646;55.930;2023-02-13T01:04:32;100370.59;;;-10.30;68.66
60101;BME280;45978;53.646;55.930;2023-02-13T01:05:33;100359.53;;;-10.31;68.62
60101;BME280;45978;53.646;55.930;2023-02-13T01:06:35;100372.91;;;-10.20;68.85
60101;BME280;45978;53.646;55.930;2023-02-13T01:07:36;100368.19;;;-10.27;68.86
60101;BME280;45978;53.646;55.930;2023-02-13T01:08:40;100380.13;;;-10.26;69.22
60101;BME280;45978;53.646;55.930;2023-02-13T01:09:43;100384.53;;;-10.37;68.95
60101;BME280;45978;53.646;55.930;2023-02-13T01:10:46;100379.56;;;-10.36;69.22
60101;BME280;45978;53.646;55.930;2023-02-13T01:11:48;100384.31;;;-10.27;68.78
60101;BME280;45978;53.646;55.930;2023-02-13T01:12:52;100387.63;;;-10.28;68.83
60101;BME280;45978;53.646;55.930;2023-02-13T01:13:54;100378.00;;;-10.33;68.99
60101;BME280;45978;53.646;55.930;2023-02-13T01:14:56;100373.41;;;-10.39;69.30
60101;BME280;45978;53.646;55.930;2023-02-13T01:15:58;100374.28;;;-10.39;68.58
60101;BME280;45978;53.646;55.930;2023-02-13T01:17:00;100376.63;;;-10.28;68.66
60101;BME280;45978;53.646;55.930;2023-02-13T01:18:02;100368.94;;;-10.30;69.09
60101;BME280;45978;53.646;55.930;2023-02-13T01:19:04;100364.69;;;-10.29;69.37
60101;BME280;45978;53.646;55.930;2023-02-13T01:20:09;100370.84;;;-10.26;69.06
60101;BME280;45978;53.646;55.930;2023-02-13T01:21:19;100382.06;;;-10.22;68.29
60101;BME280;45978;53.646;55.930;2023-02-13T01:22:21;100375.06;;;-10.26;68.94
60101;BME280;45978;53.646;55.930;2023-02-13T01:23:23;100373.13;;;-10.30;68.70
60101;BME280;45978;53.646;55.930;2023-02-13T01:24:26;100375.31;;;-10.22;68.67
60101;BME280;45978;53.646;55.930;2023-02-13T01:25:33;100352.63;;;-10.33;68.62
60101;BME280;45978;53.646;55.930;2023-02-13T01:26:34;100366.75;;;-10.24;68.98
60101;BME280;45978;53.646;55.930;2023-02-13T01:27:37;100345.13;;;-10.32;68.60
60101;BME280;45978;53.646;55.930;2023-02-13T01:28:38;100335.06;;;-10.44;68.87
60101;BME280;45978;53.646;55.930;2023-02-13T01:29:39;100383.06;;;-10.20;68.88
60101;BME280;45978;53.646;55.930;2023-02-13T01:30:41;100377.09;;;-10.21;68.96
60101;BME280;45978;53.646;55.930;2023-02-13T01:31:43;100355.25;;;-10.32;69.15
60101;BME280;45978;53.646;55.930;2023-02-13T01:32:45;100394.19;;;-10.18;68.45
60101;BME280;45978;53.646;55.930;2023-02-13T01:33:47;100380.69;;;-10.17;69.38
60101;BME280;45978;53.646;55.930;2023-02-13T01:34:49;100369.19;;;-10.25;69.02
60101;BME280;45978;53.646;55.930;2023-02-13T01:35:51;100383.63;;;-10.24;69.44
60101;BME280;45978;53.646;55.930;2023-02-13T01:36:54;100375.38;;;-10.35;69.46
60101;BME280;45978;53.646;55.930;2023-02-13T01:37:56;100370.59;;;-10.30;68.82
60101;BME280;45978;53.646;55.930;2023-02-13T01:38:59;100385.59;;;-10.20;69.42
60101;BME280;45978;53.646;55.930;2023-02-13T01:40:02;100383.06;;;-10.20;69.27
60101;BME280;45978;53.646;55.930;2023-02-13T01:41:06;100364.53;;;-10.32;69.41
60101;BME280;45978;53.646;55.930;2023-02-13T01:42:15;100374.06;;;-10.28;70.07
60101;BME280;45978;53.646;55.930;2023-02-13T01:43:17;100366.97;;;-10.34;69.44
60101;BME280;45978;53.646;55.930;2023-02-13T01:45:47;100352.34;;;-10.38;70.35
60101;BME280;45978;53.646;55.930;2023-02-13T01:46:52;100380.31;;;-10.23;70.07
60101;BME280;45978;53.646;55.930;2023-02-13T01:47:55;100382.84;;;-10.23;69.69
60101;BME280;45978;53.646;55.930;2023-02-13T01:49:08;100376.78;;;-10.25;70.96
60101;BME280;45978;53.646;55.930;2023-02-13T01:51:40;100387.25;;;-10.21;70.22
60101;BME280;45978;53.646;55.930;2023-02-13T01:52:49;100374.34;;;-10.24;70.16
60101;BME280;45978;53.646;55.930;2023-02-13T01:54:03;100374.47;;;-10.22;70.10
60101;BME280;45978;53.646;55.930;2023-02-13T01:55:09;100375.31;;;-10.22;71.14
60101;BME280;45978;53.646;55.930;2023-02-13T01:56:25;100352.81;;;-10.30;70.97
60101;BME280;45978;53.646;55.930;2023-02-13T01:57:31;100385.88;;;-10.16;70.94
60101;BME280;45978;53.646;55.930;2023-02-13T01:58:35;100361.47;;;-10.27;70.32
60101;BME280;45978;53.646;55.930;2023-02-13T02:00:00;100382.66;;;-10.13;71.08
60101;BME280;45978;53.646;55.930;2023-02-13T02:01:02;100372.69;;;-10.23;70.88
60101;BME280;45978;53.646;55.930;2023-02-13T02:02:06;100364.31;;;-10.22;71.53
60101;BME280;45978;53.646;55.930;2023-02-13T02:03:37;100382.47;;;-10.16;71.26
60101;BME280;45978;53.646;55.930;2023-02-13T02:04:42;100374.25;;;-10.12;71.17
60101;BME280;45978;53.646;55.930;2023-02-13T02:05:50;100343.94;;;-10.37;71.23
60101;BME280;45978;53.646;55.930;2023-02-13T02:06:56;100379.31;;;-10.25;71.75
60101;BME280;45978;53.646;55.930;2023-02-13T02:08:03;100363.13;;;-10.27;70.87
60101;BME280;45978;53.646;55.930;2023-02-13T02:09:13;100362.97;;;-10.30;71.15
60101;BME280;45978;53.646;55.930;2023-02-13T02:10:17;100385.47;;;-10.22;71.95
60101;BME280;45978;53.646;55.930;2023-02-13T02:11:29;100351.75;;;-10.34;71.35
60101;BME280;45978;53.646;55.930;2023-02-13T02:12:48;100376.78;;;-10.25;71.26
60101;BME280;45978;53.646;55.930;2023-02-13T02:13:53;100380.22;;;-10.25;71.40
60101;BME280;45978;53.646;55.930;2023-02-13T02:15:05;100375.06;;;-10.26;71.59
60101;BME280;45978;53.646;55.930;2023-02-13T02:16:09;100371.25;;;-10.33;71.82
60101;BME280;45978;53.646;55.930;2023-02-13T02:17:10;100354.69;;;-10.41;71.44
60101;BME280;45978;53.646;55.930;2023-02-13T02:18:18;100365.31;;;-10.33;72.10
60101;BME280;45978;53.646;55.930;2023-02-13T02:19:40;100373.38;;;-10.26;71.84
60101;BME280;45978;53.646;55.930;2023-02-13T02:26:11;100374.34;;;-10.24;72.37
60101;BME280;45978;53.646;55.930;2023-02-13T02:35:26;100367.16;;;-10.31;72.53
60101;BME280;45978;53.646;55.930;2023-02-13T02:38:15;100386.59;;;-10.31;72.48
60101;BME280;45978;53.646;55.930;2023-02-13T02:41:16;100377.91;;;-10.35;73.29
60101;BME280;45978;53.646;55.930;2023-02-13T02:43:19;100385.63;;;-10.47;74.74
60101;BME280;45978;53.646;55.930;2023-02-13T02:46:57;100378.31;;;-10.42;74.51
60101;BME280;45978;53.646;55.930;2023-02-13T02:48:31;100368.75;;;-10.46;74.17
60101;BME280;45978;53.646;55.930;2023-02-13T02:51:06;100350.28;;;-10.57;75.07
60101;BME280;45978;53.646;55.930;2023-02-13T02:52:14;100370.00;;;-10.40;74.45
60101;BME280;45978;53.646;55.930;2023-02-13T02:53:37;100367.84;;;-10.47;75.24
60101;BME280;45978;53.646;55.930;2023-02-13T02:56:30;100366.50;;;-10.42;75.55
60101;BME280;45978;53.646;55.930;2023-02-13T02:57:44;100368.66;;;-10.48;75.78
60101;BME280;45978;53.646;55.930;2023-02-13T02:59:15;100350.78;;;-10.63;76.24
60101;BME280;45978;53.646;55.930;2023-02-13T03:00:40;100364.63;;;-10.58;76.07
60101;BME280;45978;53.646;55.930;2023-02-13T03:02:01;100360.94;;;-10.49;76.67
60101;BME280;45978;53.646;55.930;2023-02-13T03:03:24;100359.19;;;-10.50;76.61
60101;BME280;45978;53.646;55.930;2023-02-13T03:04:50;100362.22;;;-10.56;75.72
60101;BME280;45978;53.646;55.930;2023-02-13T03:06:15;100338.09;;;-10.63;75.69
60101;BME280;45978;53.646;55.930;2023-02-13T03:07:19;100328.94;;;-10.74;76.05
60101;BME280;45978;53.646;55.930;2023-02-13T03:08:20;100363.78;;;-10.58;75.93
60101;BME280;45978;53.646;55.930;2023-02-13T03:09:46;100356.53;;;-10.52;76.60
60101;BME280;45978;53.646;55.930;2023-02-13T03:11:07;100323.16;;;-10.71;75.95
60101;BME280;45978;53.646;55.930;2023-02-13T03:12:39;100338.47;;;-10.57;76.27
60101;BME280;45978;53.646;55.930;2023-02-13T03:14:10;100327.75;;;-10.66;76.10
60101;BME280;45978;53.646;55.930;2023-02-13T03:15:13;100348.94;;;-10.52;76.15
60101;BME280;45978;53.646;55.930;2023-02-13T03:16:18;100309.50;;;-10.73;75.90
60101;BME280;45978;53.646;55.930;2023-02-13T03:17:39;100319.66;;;-10.73;75.76
60101;BME280;45978;53.646;55.930;2023-02-13T03:18:58;100343.16;;;-10.63;76.21
60101;BME280;45978;53.646;55.930;2023-02-13T03:22:05;100337.53;;;-10.72;76.25
60101;BME280;45978;53.646;55.930;2023-02-13T03:23:45;100354.97;;;-10.77;76.87
60101;BME280;45978;53.646;55.930;2023-02-13T03:29:57;100339.38;;;-10.69;77.17
60101;BME280;45978;53.646;55.930;2023-02-13T03:31:23;100339.25;;;-10.71;76.31
60101;BME280;45978;53.646;55.930;2023-02-13T03:34:22;100346.28;;;-10.67;77.49
60101;BME280;45978;53.646;55.930;2023-02-13T03:35:56;100345.19;;;-10.70;76.27
60101;BME280;45978;53.646;55.930;2023-02-13T03:37:27;100344.34;;;-10.71;76.88
60101;BME280;45978;53.646;55.930;2023-02-13T03:38:56;100335.06;;;-10.70;76.62
60101;BME280;45978;53.646;55.930;2023-02-13T03:40:04;100327.44;;;-10.70;76.64
60101;BME280;45978;53.646;55.930;2023-02-13T03:41:17;100335.16;;;-10.69;76.92
60101;BME280;45978;53.646;55.930;2023-02-13T03:43:12;100341.69;;;-10.72;76.83
60101;BME280;45978;53.646;55.930;2023-02-13T03:43:54;100330.56;;;-10.74;76.38
60101;BME280;45978;53.646;55.930;2023-02-13T03:45:11;100351.47;;;-10.65;76.09
60101;BME280;45978;53.646;55.930;2023-02-13T03:46:41;100327.66;;;-10.67;77.13
60101;BME280;45978;53.646;55.930;2023-02-13T03:47:44;100332.91;;;-10.64;76.70
60101;BME280;45978;53.646;55.930;2023-02-13T03:48:49;100339.28;;;-10.58;76.80
60101;BME280;45978;53.646;55.930;2023-02-13T03:50:09;100345.91;;;-10.60;76.87
60101;BME280;45978;53.646;55.930;2023-02-13T03:51:16;100347.28;;;-10.51;76.58
60101;BME280;45978;53.646;55.930;2023-02-13T03:52:23;100348.94;;;-10.52;75.76
60101;BME280;45978;53.646;55.930;2023-02-13T03:53:28;100342.19;;;-10.51;76.36
60101;BME280;45978;53.646;55.930;2023-02-13T03:54:43;100333.81;;;-10.50;76.60
60101;BME280;45978;53.646;55.930;2023-02-13T03:56:21;100334.19;;;-10.44;75.83
60101;BME280;45978;53.646;55.930;2023-02-13T03:57:45;100328.31;;;-10.57;75.71
60101;BME280;45978;53.646;55.930;2023-02-13T03:59:16;100339.56;;;-10.40;76.59
60101;BME280;45978;53.646;55.930;2023-02-13T04:00:21;100358.03;;;-10.27;75.71
60101;BME280;45978;53.646;55.930;2023-02-13T04:01:28;100338.97;;;-10.36;75.91
60101;BME280;45978;53.646;55.930;2023-02-13T04:02:35;100347.78;;;-10.29;75.14
60101;BME280;45978;53.646;55.930;2023-02-13T04:03:44;100352.19;;;-10.26;75.27
60101;BME280;45978;53.646;55.930;2023-02-13T04:04:53;100355.97;;;-10.34;75.28
60101;BME280;45978;53.646;55.930;2023-02-13T04:06:20;100330.28;;;-10.39;75.25
60101;BME280;45978;53.646;55.930;2023-02-13T04:07:24;100325.28;;;-10.38;75.45
60101;BME280;45978;53.646;55.930;2023-02-13T04:08:32;100338.81;;;-10.24;75.48
60101;BME280;45978;53.646;55.930;2023-02-13T04:09:37;100343.63;;;-10.28;74.51
60101;BME280;45978;53.646;55.930;2023-02-13T04:11:11;100354.63;;;-10.14;75.30
60101;BME280;45978;53.646;55.930;2023-02-13T04:12:18;100351.59;;;-10.22;75.14
60101;BME280;45978;53.646;55.930;2023-02-13T04:13:33;100339.09;;;-10.19;74.63
60101;BME280;45978;53.646;55.930;2023-02-13T04:14:45;100350.19;;;-10.04;75.14
60101;BME280;45978;53.646;55.930;2023-02-13T04:15:55;100355.19;;;-10.05;75.08
60101;BME280;45978;53.646;55.930;2023-02-13T04:17:03;100334.59;;;-10.10;74.86
60101;BME280;45978;53.646;55.930;2023-02-13T04:18:27;100338.31;;;-10.05;74.81
60101;BME280;45978;53.646;55.930;2023-02-13T04:19:31;100316.91;;;-10.08;74.41
60101;BME280;45978;53.646;55.930;2023-02-13T04:20:33;100354.75;;;-9.85;74.52
60101;BME280;45978;53.646;55.930;2023-02-13T04:21:38;100367.34;;;-9.86;74.60
60101;BME280;45978;53.646;55.930;2023-02-13T04:22:47;100354.69;;;-10.00;74.06
60101;BME280;45978;53.646;55.930;2023-02-13T04:23:48;100354.09;;;-9.96;74.75
60101;BME280;45978;53.646;55.930;2023-02-13T04:24:50;100346.88;;;-9.89;74.42
60101;BME280;45978;53.646;55.930;2023-02-13T04:25:54;100338.19;;;-9.93;74.80
60101;BME280;45978;53.646;55.930;2023-02-13T04:26:57;100333.25;;;-9.90;74.75
60101;BME280;45978;53.646;55.930;2023-02-13T04:27:59;100337.06;;;-9.83;74.50
60101;BME280;45978;53.646;55.930;2023-02-13T04:29:01;100357.53;;;-9.67;74.60
60101;BME280;45978;53.646;55.930;2023-02-13T04:30:02;100340.75;;;-9.78;74.92
60101;BME280;45978;53.646;55.930;2023-02-13T04:31:04;100356.97;;;-9.76;74.60
60101;BME280;45978;53.646;55.930;2023-02-13T04:32:05;100352.56;;;-9.65;74.47
60101;BME280;45978;53.646;55.930;2023-02-13T04:33:06;100363.09;;;-9.59;74.66
60101;BME280;45978;53.646;55.930;2023-02-13T04:34:11;100349.31;;;-9.63;75.02
60101;BME280;45978;53.646;55.930;2023-02-13T04:35:16;100363.53;;;-9.51;74.43
60101;BME280;45978;53.646;55.930;2023-02-13T04:36:17;100351.16;;;-9.60;74.76
60101;BME280;45978;53.646;55.930;2023-02-13T04:37:23;100366.34;;;-9.47;74.63
60101;BME280;45978;53.646;55.930;2023-02-13T04:38:25;100366.19;;;-9.35;74.51
60101;BME280;45978;53.646;55.930;2023-02-13T04:39:26;100372.25;;;-9.33;74.21
60101;BME280;45978;53.646;55.930;2023-02-13T04:40:27;100372.25;;;-9.48;73.71
60101;BME280;45978;53.646;55.930;2023-02-13T04:41:29;100368.38;;;-9.41;73.90
60101;BME280;45978;53.646;55.930;2023-02-13T04:42:30;100359.69;;;-9.45;74.61
60101;BME280;45978;53.646;55.930;2023-02-13T04:43:31;100341.94;;;-9.58;74.16
60101;BME280;45978;53.646;55.930;2023-02-13T04:44:32;100376.97;;;-9.39;74.08
60101;BME280;45978;53.646;55.930;2023-02-13T04:45:34;100373.47;;;-9.41;74.30
60101;BME280;45978;53.646;55.930;2023-02-13T04:46:35;100374.34;;;-9.41;74.40
60101;BME280;45978;53.646;55.930;2023-02-13T04:47:36;100361.50;;;-9.57;74.75
60101;BME280;45978;53.646;55.930;2023-02-13T04:48:38;100386.78;;;-9.45;74.36
60101;BME280;45978;53.646;55.930;2023-02-13T04:49:39;100366.25;;;-9.48;74.72
60101;BME280;45978;53.646;55.930;2023-02-13T04:50:40;100365.75;;;-9.43;74.74
60101;BME280;45978;53.646;55.930;2023-02-13T04:51:45;100374.19;;;-9.29;74.71
60101;BME280;45978;53.646;55.930;2023-02-13T04:52:46;100384.19;;;-9.32;74.67
60101;BME280;45978;53.646;55.930;2023-02-13T04:53:48;100368.34;;;-9.28;74.62
60101;BME280;45978;53.646;55.930;2023-02-13T04:54:52;100384.50;;;-9.12;74.43
60101;BME280;45978;53.646;55.930;2023-02-13T04:55:56;100391.16;;;-9.00;74.61
60101;BME280;45978;53.646;55.930;2023-02-13T04:57:11;100394.22;;;-9.05;74.80
60101;BME280;45978;53.646;55.930;2023-02-13T04:58:20;100389.13;;;-9.05;74.57
60101;BME280;45978;53.646;55.930;2023-02-13T04:59:25;100362.84;;;-9.06;74.81
60101;BME280;45978;53.646;55.930;2023-02-13T05:00:28;100390.38;;;-8.84;74.54
60101;BME280;45978;53.646;55.930;2023-02-13T05:01:30;100369.78;;;-8.88;74.37
60101;BME280;45978;53.646;55.930;2023-02-13T05:02:31;100399.28;;;-8.77;74.46
60101;BME280;45978;53.646;55.930;2023-02-13T05:03:33;100394.97;;;-8.78;73.79
60101;BME280;45978;53.646;55.930;2023-02-13T05:04:34;100393.72;;;-8.70;74.14
60101;BME280;45978;53.646;55.930;2023-02-13T05:05:37;100376.53;;;-8.74;74.34
60101;BME280;45978;53.646;55.930;2023-02-13T05:06:38;100370.19;;;-8.66;74.27
60101;BME280;45978;53.646;55.930;2023-02-13T05:07:40;100362.41;;;-8.69;74.24
60101;BME280;45978;53.646;55.930;2023-02-13T05:08:42;100392.81;;;-8.41;73.83
60101;BME280;45978;53.646;55.930;2023-02-13T05:09:43;100387.19;;;-8.35;73.25
60101;BME280;45978;53.646;55.930;2023-02-13T05:10:45;100344.50;;;-8.70;73.73
60101;BME280;45978;53.646;55.930;2023-02-13T05:11:46;100384.50;;;-8.53;73.38
60101;BME280;45978;53.646;55.930;2023-02-13T05:12:47;100342.13;;;-8.67;73.50
60101;BME280;45978;53.646;55.930;2023-02-13T05:13:49;100354.41;;;-8.60;73.23
60101;BME280;45978;53.646;55.930;2023-02-13T05:14:53;100334.59;;;-8.81;73.88
60101;BME280;45978;53.646;55.930;2023-02-13T05:15:55;100352.75;;;-8.74;73.13
60101;BME280;45978;53.646;55.930;2023-02-13T05:16:56;100398.63;;;-8.58;73.72
60101;BME280;45978;53.646;55.930;2023-02-13T05:17:58;100377.03;;;-8.50;73.34
60101;BME280;45978;53.646;55.930;2023-02-13T05:18:59;100360.72;;;-8.53;73.94
60101;BME280;45978;53.646;55.930;2023-02-13T05:20:00;100365.03;;;-8.67;73.58
60101;BME280;45978;53.646;55.930;2023-02-13T05:21:03;100339.78;;;-8.79;74.36
60101;BME280;45978;53.646;55.930;2023-02-13T05:22:22;100325.72;;;-8.87;73.82
60101;BME280;45978;53.646;55.930;2023-02-13T05:23:50;100320.19;;;-8.80;74.06
60101;BME280;45978;53.646;55.930;2023-02-13T05:24:51;100346.41;;;-8.51;74.68
60101;BME280;45978;53.646;55.930;2023-02-13T05:25:52;100356.84;;;-8.47;74.13
60101;BME280;45978;53.646;55.930;2023-02-13T05:26:53;100349.16;;;-8.63;74.07
60101;BME280;45978;53.646;55.930;2023-02-13T05:27:55;100263.00;;;-9.02;73.82
60101;BME280;45978;53.646;55.930;2023-02-13T05:28:59;100367.22;;;-8.44;73.54
60101;BME280;45978;53.646;55.930;2023-02-13T05:30:19;100293.09;;;-8.94;73.16
60101;BME280;45978;53.646;55.930;2023-02-13T05:31:23;100379.59;;;-8.65;74.05
60101;BME280;45978;53.646;55.930;2023-02-13T05:32:25;100376.44;;;-8.46;73.68
60101;BME280;45978;53.646;55.930;2023-02-13T05:33:26;100279.47;;;-8.80;73.55
60101;BME280;45978;53.646;55.930;2023-02-13T05:34:29;100326.81;;;-8.52;73.42
60101;BME280;45978;53.646;55.930;2023-02-13T05:35:30;100349.13;;;-8.48;73.31
60101;BME280;45978;53.646;55.930;2023-02-13T05:36:31;100285.91;;;-9.02;73.08
60101;BME280;45978;53.646;55.930;2023-02-13T05:37:33;100335.09;;;-8.71;73.30
60101;BME280;45978;53.646;55.930;2023-02-13T05:38:34;100322.03;;;-8.78;72.81
60101;BME280;45978;53.646;55.930;2023-02-13T05:39:35;100326.25;;;-8.63;73.85
60101;BME280;45978;53.646;55.930;2023-02-13T05:40:38;100333.94;;;-8.62;73.61
60101;BME280;45978;53.646;55.930;2023-02-13T05:41:41;100357.56;;;-8.49;72.82
60101;BME280;45978;53.646;55.930;2023-02-13T05:42:43;100348.69;;;-8.56;73.04
60101;BME280;45978;53.646;55.930;2023-02-13T05:43:44;100333.50;;;-8.54;73.06
60101;BME280;45978;53.646;55.930;2023-02-13T05:44:45;100311.72;;;-8.49;73.26
60101;BME280;45978;53.646;55.930;2023-02-13T05:45:47;100305.78;;;-8.33;73.25
60101;BME280;45978;53.646;55.930;2023-02-13T05:46:49;100339.22;;;-7.96;72.54
60101;BME280;45978;53.646;55.930;2023-02-13T05:47:53;100344.09;;;-7.84;72.74
60101;BME280;45978;53.646;55.930;2023-02-13T05:48:54;100338.25;;;-7.98;71.72
60101;BME280;45978;53.646;55.930;2023-02-13T05:49:55;100309.72;;;-8.07;72.08
60101;BME280;45978;53.646;55.930;2023-02-13T05:50:56;100332.03;;;-8.03;72.14
60101;BME280;45978;53.646;55.930;2023-02-13T05:51:58;100311.19;;;-8.27;71.91
60101;BME280;45978;53.646;55.930;2023-02-13T05:52:59;100296.63;;;-8.30;71.16
60101;BME280;45978;53.646;55.930;2023-02-13T05:54:01;100298.00;;;-8.20;71.05
60101;BME280;45978;53.646;55.930;2023-02-13T05:55:02;100308.84;;;-8.08;71.23
60101;BME280;45978;53.646;55.930;2023-02-13T05:56:05;100321.50;;;-7.93;70.37
60101;BME280;45978;53.646;55.930;2023-02-13T05:57:09;100347.34;;;-7.87;71.02
60101;BME280;45978;53.646;55.930;2023-02-13T05:58:10;100316.00;;;-8.01;70.82
60101;BME280;45978;53.646;55.930;2023-02-13T05:59:12;100335.72;;;-7.82;70.54
60101;BME280;45978;53.646;55.930;2023-02-13T06:00:14;100332.06;;;-7.70;70.47
60101;BME280;45978;53.646;55.930;2023-02-13T06:01:16;100354.28;;;-7.68;70.69
60101;BME280;45978;53.646;55.930;2023-02-13T06:02:22;100307.34;;;-7.88;70.53
60101;BME280;45978;53.646;55.930;2023-02-13T06:03:24;100285.44;;;-8.01;70.11
60101;BME280;45978;53.646;55.930;2023-02-13T06:04:26;100303.63;;;-7.94;70.91
60101;BME280;45978;53.646;55.930;2023-02-13T06:05:27;100334.28;;;-7.77;70.77
60101;BME280;45978;53.646;55.930;2023-02-13T06:06:28;100349.03;;;-7.71;71.05
60101;BME280;45978;53.646;55.930;2023-02-13T06:07:30;100318.91;;;-7.78;70.60
60101;BME280;45978;53.646;55.930;2023-02-13T06:08:32;100313.09;;;-7.92;70.00
60101;BME280;45978;53.646;55.930;2023-02-13T06:09:35;100322.31;;;-7.78;70.92
60101;BME280;45978;53.646;55.930;2023-02-13T06:10:38;100327.09;;;-7.67;69.94
60101;BME280;45978;53.646;55.930;2023-02-13T06:11:39;100289.91;;;-7.80;70.23
60101;BME280;45978;53.646;55.930;2023-02-13T06:12:42;100308.41;;;-7.68;69.46
60101;BME280;45978;53.646;55.930;2023-02-13T06:13:44;100306.31;;;-7.59;70.09